Observations for NEWCASTLE, United Kingdom (EGNT)

EGNT 231120Z 17004KT 120V200 9999 FEW020 BKN045 12/10 Q1012 
EGNT 231050Z 17005KT 100V200 9999 FEW020 BKN045 12/09 Q1012 
EGNT 231020Z 16005KT 120V200 9999 FEW020 11/09 Q1012
EGNT 230950Z 17005KT 110V200 9999 FEW020 11/09 Q1012
EGNT 230920Z 17004KT 140V200 9999 SCT020 10/08 Q1012
EGNT 230850Z 16004KT 120V200 9999 BKN020 10/07 Q1012
EGNT 230820Z 16005KT 130V190 9999 BKN020 09/07 Q1012
EGNT 230750Z 16004KT 100V200 9999 SCT020 09/07 Q1012
EGNT 230720Z 15004KT 120V200 9999 FEW027 09/07 Q1012
EGNT 230650Z 14003KT 9999 FEW027 08/06 Q1012
EGNT 230620Z 15003KT 9999 FEW027 08/06 Q1012
EGNT 230550Z VRB03KT CAVOK 07/06 Q1012  
EGNT 230520Z VRB03KT CAVOK 07/06 Q1012  
EGNT 230450Z 18001KT CAVOK 07/06 Q1013  
EGNT 230420Z 19001KT CAVOK 06/06 Q1012  
EGNT 230350Z VRB02KT CAVOK 06/05 Q1013  
EGNT 230320Z 26003KT CAVOK 07/06 Q1013  
EGNT 230250Z VRB03KT CAVOK 07/05 Q1013  
EGNT 230220Z 25004KT 210V270 CAVOK 07/05 Q1013  
EGNT 230150Z 26006KT CAVOK 07/05 Q1013  
EGNT 230120Z 27009KT CAVOK 07/05 Q1013  
EGNT 230050Z 27008KT CAVOK 07/05 Q1013  
EGNT 230020Z 26008KT CAVOK 07/05 Q1012  
EGNT 222350Z 26008KT CAVOK 07/05 Q1012  
EGNT 222320Z 27009KT CAVOK 07/04 Q1012  
EGNT 222250Z 26010KT CAVOK 07/04 Q1012  
EGNT 222220Z 27012KT CAVOK 07/04 Q1012  
EGNT 222150Z 27013KT CAVOK 08/04 Q1012  
EGNT 222120Z 27013KT CAVOK 08/04 Q1011  
EGNT 222050Z 27015KT CAVOK 08/05 Q1011  
EGNT 222020Z 28014KT 9999 FEW045 08/05 Q1011
EGNT 221950Z 27013KT 9999 FEW045 09/05 Q1011
EGNT 221920Z 26011KT 9999 FEW027 09/06 Q1011
EGNT 221850Z 27013KT 9999 FEW027 09/06 Q1010
EGNT 221820Z 28016KT 9999 FEW028 09/06 Q1010
EGNT 221750Z 27018KT 9999 FEW025 10/07 Q1009
EGNT 221720Z 27016KT 9999 FEW024 10/07 Q1008
EGNT 221650Z 28018KT 9999 FEW020 10/07 Q1008
EGNT 221620Z 28019KT 9999 FEW021 11/08 Q1007
EGNT 221550Z 27019KT 9999 FEW023 11/08 Q1007
EGNT 221520Z 28017KT 9999 FEW023 12/08 Q1006
EGNT 221450Z 28015KT 9999 FEW020 SCT029 12/08 Q1006 
EGNT 221420Z 28016KT 9999 FEW017 SCT028 12/09 Q1005 
EGNT 221350Z 28017KT 9999 FEW011 SCT038 12/09 Q1005 
EGNT 221320Z 28017KT 9999 VCSH FEW011 SCT038 12/09 Q1004
EGNT 221250Z 27019KT 9999 FEW014 SCT031 11/09 Q1004 
EGNT 221220Z 27021KT 9999 FEW014 SCT031 12/09 Q1003 
EGNT 221150Z 27020KT 9999 FEW014 SCT024 12/09 Q1003 
EGNT 221120Z 27020KT 9999 FEW013 SCT025 12/10 Q1002 
EGNT 221050Z 27020KT 9999 FEW013 SCT025 11/09 Q1002